Time;durP1;ratioP1;P1;durP2;ratioP2;P2;SDS_P1;SDS_P2;PMS_P1;PMS_P2;Temp;Humidity;BMP_temperature;BMP_pressure;BME280_temperature;BME280_humidity;BME280_pressure;Samples;Min_cycle;Max_cycle;Signal;HPM_P1;HPM_P2
2022/02/01 00:01:32;;;;;;;100.07;49.85;;;;;;;-0.29;64.59;99113.56;5008245;28;20046;-72
2022/02/01 00:04:03;;;;;;;85.47;41.25;;;;;;;-0.30;64.54;99119.63;5008029;28;20038;-75
2022/02/01 00:06:41;;;;;;;69.10;34.38;;;;;;;-0.31;64.58;99125.72;5005781;28;20078;-73
2022/02/01 00:09:09;;;;;;;70.95;34.95;;;;;;;-0.30;64.49;99119.63;5007277;28;20461;-72
2022/02/01 00:11:48;;;;;;;73.22;36.15;;;;;;;-0.30;64.27;99122.25;5006866;28;20114;-75
2022/02/01 00:14:22;;;;;;;61.88;30.48;;;;;;;-0.30;64.28;99124.00;5008852;28;20134;-72
2022/02/01 00:17:23;;;;;;;68.80;31.35;;;;;;;-0.30;64.09;99127.44;5009259;28;20076;-74
2022/02/01 00:20:07;;;;;;;68.13;30.38;;;;;;;-0.30;64.48;99132.63;5009742;28;20112;-74
2022/02/01 00:33:52;;;;;;;61.80;33.88;;;;;;;-0.32;64.27;99137.03;5006547;28;20104;-73
2022/02/01 00:36:28;;;;;;;68.60;31.48;;;;;;;-0.32;64.44;99144.00;5037585;28;20045;-70
2022/02/01 00:38:59;;;;;;;68.40;32.25;;;;;;;-0.36;64.42;99139.81;5049016;28;20124;-71
2022/02/01 00:41:32;;;;;;;65.93;33.78;;;;;;;-0.36;64.58;99148.47;5049157;28;20151;-75
2022/02/01 00:43:59;;;;;;;69.32;34.30;;;;;;;-0.39;64.49;99139.06;5052945;28;20118;-72
2022/02/01 00:46:27;;;;;;;60.92;35.60;;;;;;;-0.42;64.48;99140.94;5059999;28;20303;-71
2022/02/01 00:48:56;;;;;;;63.65;34.83;;;;;;;-0.42;64.50;99148.72;5059490;28;20187;-72
2022/02/01 00:51:23;;;;;;;66.07;33.28;;;;;;;-0.42;64.48;99151.31;5060007;28;20101;-73
2022/02/01 00:53:50;;;;;;;70.65;37.05;;;;;;;-0.47;64.56;99148.97;5060022;28;20049;-74
2022/02/01 00:56:18;;;;;;;80.05;40.38;;;;;;;-0.48;64.43;99149.84;5061177;28;20445;-70
2022/02/01 00:58:45;;;;;;;73.80;37.83;;;;;;;-0.49;64.08;99155.09;5060778;28;20832;-70
2022/02/01 01:01:14;;;;;;;67.45;37.95;;;;;;;-0.52;64.29;99155.25;5052117;28;20135;-73
2022/02/01 01:03:44;;;;;;;75.32;39.65;;;;;;;-0.53;64.64;99163.94;5049466;28;20045;-71
2022/02/01 01:06:14;;;;;;;75.20;38.83;;;;;;;-0.56;64.26;99149.34;5047238;28;20076;-73
2022/02/01 01:08:41;;;;;;;65.35;34.05;;;;;;;-0.57;64.20;99155.47;5048753;28;20049;-74
2022/02/01 01:11:08;;;;;;;71.68;31.45;;;;;;;-0.59;64.21;99163.31;5049351;28;20053;-73
2022/02/01 01:16:49;;;;;;;64.50;31.70;;;;;;;-0.60;64.28;99160.78;4988598;28;20058;-73
2022/02/01 01:44:25;;;;;;;45.72;21.23;;;;;;;-0.61;64.26;99180.69;4909234;29;20059;-74
2022/02/01 01:55:02;;;;;;;42.67;21.17;;;;;;;-0.61;63.93;99203.19;4890665;29;20099;-70
2022/02/01 01:57:29;;;;;;;60.47;27.38;;;;;;;-0.63;63.88;99210.16;4888749;29;20068;-71
2022/02/01 01:59:56;;;;;;;70.13;30.15;;;;;;;-0.60;64.03;99212.63;4899632;28;20063;-73
2022/02/01 02:02:23;;;;;;;70.03;33.10;;;;;;;-0.58;64.04;99210.81;4984374;28;20544;-72
2022/02/01 02:04:50;;;;;;;75.38;35.45;;;;;;;-0.57;63.73;99206.50;4983789;28;20050;-73
2022/02/01 02:07:18;;;;;;;79.40;38.03;;;;;;;-0.55;63.98;99212.44;4982609;28;20125;-73
2022/02/01 02:09:45;;;;;;;74.07;35.95;;;;;;;-0.55;63.90;99210.69;4985253;28;20042;-72
2022/02/01 02:12:20;;;;;;;56.20;28.90;;;;;;;-0.54;63.90;99217.59;4984330;28;20054;-74
2022/02/01 02:14:50;;;;;;;70.82;36.28;;;;;;;-0.51;63.77;99217.44;4983716;28;20065;-72
2022/02/01 02:17:17;;;;;;;62.60;32.33;;;;;;;-0.50;63.69;99221.72;4983946;28;20082;-72
2022/02/01 02:19:44;;;;;;;65.07;30.27;;;;;;;-0.51;63.56;99227.78;4983511;28;20394;-73
2022/02/01 02:22:13;;;;;;;61.45;29.00;;;;;;;-0.52;63.98;99230.44;4984262;28;20052;-74
2022/02/01 02:24:42;;;;;;;49.35;25.42;;;;;;;-0.52;63.73;99230.44;4984514;28;20564;-74
2022/02/01 02:27:09;;;;;;;56.10;26.13;;;;;;;-0.53;63.81;99233.97;4985412;28;20057;-74
2022/02/01 02:29:36;;;;;;;43.92;26.60;;;;;;;-0.53;63.67;99231.38;4988086;28;20609;-73
2022/02/01 02:32:05;;;;;;;55.53;25.67;;;;;;;-0.55;63.49;99236.63;4988206;28;20117;-70
2022/02/01 02:34:32;;;;;;;52.58;23.40;;;;;;;-0.56;63.35;99240.13;4986240;28;20670;-68
2022/02/01 02:37:01;;;;;;;49.92;26.48;;;;;;;-0.55;63.49;99247.00;4985900;28;20112;-73
2022/02/01 02:39:33;;;;;;;51.92;23.65;;;;;;;-0.53;63.60;99246.94;4987474;28;20057;-74
2022/02/01 02:42:12;;;;;;;46.47;23.90;;;;;;;-0.51;63.70;99255.50;4986759;28;20104;-70
2022/02/01 02:47:26;;;;;;;46.47;24.35;;;;;;;-0.44;63.44;99249.13;4987212;28;20053;-72
2022/02/01 02:49:53;;;;;;;55.13;24.85;;;;;;;-0.45;63.16;99250.91;4987100;28;20069;-73
2022/02/01 02:52:20;;;;;;;50.42;23.45;;;;;;;-0.45;63.35;99250.91;4986937;28;20156;-69
2022/02/01 02:54:49;;;;;;;47.30;24.23;;;;;;;-0.40;63.28;99251.53;4986009;28;20629;-72
2022/02/01 02:57:16;;;;;;;46.38;24.23;;;;;;;-0.39;63.46;99247.19;4987854;28;20046;-73
2022/02/01 02:59:43;;;;;;;55.38;28.13;;;;;;;-0.35;63.27;99255.69;4987684;28;20141;-71
2022/02/01 03:02:10;;;;;;;51.67;25.13;;;;;;;-0.35;63.42;99255.69;4987407;28;20046;-74
2022/02/01 03:04:38;;;;;;;54.30;27.55;;;;;;;-0.34;63.01;99262.53;4988389;28;20065;-70
2022/02/01 03:07:06;;;;;;;50.83;25.55;;;;;;;-0.32;63.07;99264.19;4989978;28;20506;-73
2022/02/01 03:09:39;;;;;;;44.97;24.77;;;;;;;-0.33;63.38;99267.66;4991277;28;20699;-69
2022/02/01 03:12:11;;;;;;;53.83;28.92;;;;;;;-0.30;63.40;99262.34;5030522;28;20084;-69
2022/02/01 03:14:51;;;;;;;54.72;30.63;;;;;;;-0.32;63.03;99263.34;5030151;28;20126;-75
2022/02/01 03:17:27;;;;;;;59.17;31.15;;;;;;;-0.35;63.46;99279.03;5030161;28;20053;-69
2022/02/01 03:19:55;;;;;;;62.22;32.08;;;;;;;-0.38;63.21;99277.41;5030657;28;20079;-73
2022/02/01 03:22:24;;;;;;;50.40;29.73;;;;;;;-0.34;63.57;99276.38;5031602;28;20665;-71
2022/02/01 03:24:52;;;;;;;63.55;27.42;;;;;;;-0.33;63.22;99274.63;5030743;28;20049;-69
2022/02/01 03:27:21;;;;;;;44.22;24.50;;;;;;;-0.28;63.22;99265.72;5032236;28;20057;-67
2022/02/01 03:29:49;;;;;;;49.10;27.60;;;;;;;-0.24;63.01;99262.06;5032833;28;20125;-69
2022/02/01 03:32:16;;;;;;;52.92;26.33;;;;;;;-0.17;62.92;99267.84;5028830;28;20045;-69
2022/02/01 03:34:44;;;;;;;54.17;24.80;;;;;;;-0.15;62.74;99270.38;5029204;28;20049;-68
2022/02/01 03:37:10;;;;;;;37.45;20.20;;;;;;;-0.10;62.57;99266.66;5026920;28;20053;-67
2022/02/01 03:39:37;;;;;;;50.78;22.92;;;;;;;-0.05;62.41;99269.91;5029202;28;20081;-74
2022/02/01 03:42:05;;;;;;;43.47;22.50;;;;;;;-0.03;62.34;99272.44;5029280;28;20137;-68
2022/02/01 03:44:34;;;;;;;34.85;17.83;;;;;;;0.00;62.67;99277.50;5027824;28;20049;-70
2022/02/01 03:47:02;;;;;;;46.08;20.70;;;;;;;0.04;62.40;99289.41;5027472;28;20172;-75
2022/02/01 03:49:33;;;;;;;49.15;23.45;;;;;;;0.08;62.52;99290.13;5028233;28;20052;-69
2022/02/01 03:52:00;;;;;;;40.83;18.17;;;;;;;0.11;62.32;99288.22;5027869;28;20076;-70
2022/02/01 03:54:29;;;;;;;43.40;23.27;;;;;;;0.14;62.03;99282.03;5028089;28;20497;-72
2022/02/01 03:56:56;;;;;;;40.60;21.10;;;;;;;0.14;62.13;99267.28;5028019;28;20056;-70
2022/02/01 03:59:24;;;;;;;40.83;18.40;;;;;;;0.12;61.90;99265.69;5028539;28;20111;-69
2022/02/01 04:01:55;;;;;;;37.25;18.90;;;;;;;0.13;62.18;99277.78;5028735;28;20056;-69
2022/02/01 04:04:24;;;;;;;39.05;20.08;;;;;;;0.11;61.91;99287.34;5029125;28;20038;-73
2022/02/01 04:06:51;;;;;;;37.85;18.17;;;;;;;0.05;61.85;99287.66;5026605;28;20049;-70
2022/02/01 04:09:18;;;;;;;32.40;17.15;;;;;;;0.03;61.99;99285.13;5028336;28;20045;-73
2022/02/01 04:11:46;;;;;;;38.97;18.42;;;;;;;0.05;61.94;99282.47;5028496;28;20137;-73
2022/02/01 04:14:17;;;;;;;42.17;19.05;;;;;;;0.06;62.17;99273.78;5027404;28;20081;-72
2022/02/01 04:16:44;;;;;;;42.90;19.73;;;;;;;0.07;62.03;99275.44;5027387;28;20054;-75
2022/02/01 04:19:12;;;;;;;35.17;17.65;;;;;;;0.07;62.13;99275.44;5028769;28;20077;-71
2022/02/01 04:21:43;;;;;;;42.88;20.50;;;;;;;0.04;62.18;99276.44;5028232;28;20107;-70
2022/02/01 04:24:10;;;;;;;51.03;22.55;;;;;;;-0.01;61.79;99273.19;5028050;28;20068;-73
2022/02/01 04:26:37;;;;;;;47.40;21.50;;;;;;;-0.07;62.16;99271.72;5028188;28;20048;-75
2022/02/01 04:29:04;;;;;;;44.67;25.88;;;;;;;-0.12;62.36;99254.66;5028078;28;20060;-72
2022/02/01 04:31:31;;;;;;;44.80;21.92;;;;;;;-0.15;62.20;99255.63;5028187;28;20518;-71
2022/02/01 04:33:58;;;;;;;48.45;20.80;;;;;;;-0.18;62.34;99247.13;5027809;28;20177;-73
2022/02/01 04:36:27;;;;;;;35.47;21.58;;;;;;;-0.21;62.40;99241.19;5028234;28;20080;-71
2022/02/01 04:38:57;;;;;;;43.13;19.80;;;;;;;-0.23;62.43;99245.59;5028505;28;20098;-70
2022/02/01 04:41:24;;;;;;;41.78;19.65;;;;;;;-0.25;62.19;99250.03;5028020;28;20626;-69
2022/02/01 04:43:52;;;;;;;34.83;19.20;;;;;;;-0.24;62.33;99250.84;5027199;28;20481;-71
2022/02/01 04:46:19;;;;;;;34.03;18.02;;;;;;;-0.22;62.00;99249.03;5028282;28;20389;-71
2022/02/01 04:48:47;;;;;;;40.33;20.98;;;;;;;-0.21;61.92;99253.31;5026830;28;20136;-72
2022/02/01 04:51:14;;;;;;;35.42;16.13;;;;;;;-0.17;61.94;99256.63;5027248;28;20084;-72
2022/02/01 04:53:43;;;;;;;33.47;19.00;;;;;;;-0.12;62.04;99258.09;5028239;28;20073;-72
2022/02/01 04:56:10;;;;;;;32.35;17.17;;;;;;;-0.08;61.88;99267.44;5027221;28;20124;-69
2022/02/01 04:58:37;;;;;;;37.58;17.23;;;;;;;-0.04;61.62;99273.31;5025915;28;20053;-70
2022/02/01 05:01:05;;;;;;;47.47;21.95;;;;;;;-0.02;61.60;99279.28;5027567;28;20167;-71
2022/02/01 05:03:32;;;;;;;49.47;25.15;;;;;;;-0.01;61.68;99286.19;5027221;28;20041;-72
2022/02/01 05:05:59;;;;;;;48.30;26.20;;;;;;;-0.05;61.67;99282.88;5026214;28;20047;-70
2022/02/01 05:08:26;;;;;;;39.95;21.42;;;;;;;-0.05;61.40;99288.06;5026273;28;20041;-69
2022/02/01 05:10:55;;;;;;;57.75;27.17;;;;;;;-0.06;61.61;99290.72;5026025;28;20131;-70
2022/02/01 05:13:49;;;;;;;49.50;24.23;;;;;;;-0.06;61.53;99299.34;5026345;28;20053;-68
2022/02/01 05:16:20;;;;;;;41.72;25.80;;;;;;;-0.03;61.51;99288.00;5026697;28;20053;-68
2022/02/01 05:18:49;;;;;;;43.92;25.15;;;;;;;-0.08;61.73;99290.78;5026050;28;20053;-70
2022/02/01 05:21:21;;;;;;;51.60;27.80;;;;;;;-0.10;61.78;99284.81;5025331;28;20065;-70
2022/02/01 05:23:49;;;;;;;41.58;26.92;;;;;;;-0.12;61.61;99280.63;5026613;28;20148;-70
2022/02/01 05:26:19;;;;;;;55.60;28.25;;;;;;;-0.10;61.77;99289.19;5025747;28;20053;-70
2022/02/01 05:28:46;;;;;;;53.85;28.55;;;;;;;-0.06;61.62;99290.72;5025435;28;20557;-69
2022/02/01 05:31:12;;;;;;;47.30;28.23;;;;;;;-0.03;61.54;99280.22;5025984;28;20048;-69
2022/02/01 05:33:39;;;;;;;42.97;23.75;;;;;;;0.03;61.71;99281.69;5025918;28;20076;-69
2022/02/01 05:36:08;;;;;;;36.58;21.25;;;;;;;0.06;61.49;99268.59;5025858;28;20060;-68
2022/02/01 05:38:36;;;;;;;35.58;22.35;;;;;;;0.08;61.65;99275.38;5023714;28;20736;-68
2022/02/01 05:41:04;;;;;;;39.10;22.90;;;;;;;0.12;61.51;99284.69;5025553;28;20073;-68
2022/02/01 05:43:37;;;;;;;34.08;20.23;;;;;;;0.17;61.58;99294.91;5025664;28;20045;-69
2022/02/01 05:46:04;;;;;;;47.67;20.33;;;;;;;0.17;61.43;99300.91;5025544;28;20064;-68
2022/02/01 05:48:31;;;;;;;34.75;19.45;;;;;;;0.23;61.36;99296.38;5025247;28;20454;-68
2022/02/01 05:51:00;;;;;;;39.17;21.00;;;;;;;0.25;61.46;99299.72;5025845;28;20132;-71
2022/02/01 05:53:27;;;;;;;40.13;20.58;;;;;;;0.22;61.18;99305.91;5024809;28;20132;-68
2022/02/01 05:55:54;;;;;;;27.17;14.63;;;;;;;0.28;61.29;99307.41;5025548;28;20132;-70
2022/02/01 05:58:22;;;;;;;40.78;24.48;;;;;;;0.25;61.10;99307.53;5026218;28;20065;-72
2022/02/01 06:00:51;;;;;;;40.88;19.63;;;;;;;0.27;61.30;99306.56;5025234;28;20052;-71
2022/02/01 06:03:18;;;;;;;40.80;18.60;;;;;;;0.25;61.09;99305.75;5026572;28;20083;-72
2022/02/01 06:05:45;;;;;;;35.80;19.75;;;;;;;0.23;61.36;99311.94;5026247;28;20053;-72
2022/02/01 06:08:12;;;;;;;35.63;18.75;;;;;;;0.22;61.13;99311.13;5024880;28;20139;-73
2022/02/01 06:10:39;;;;;;;30.17;15.70;;;;;;;0.23;61.05;99317.13;5024713;28;20056;-71
2022/02/01 06:13:06;;;;;;;39.03;21.92;;;;;;;0.20;61.38;99307.75;5025196;28;20045;-70
2022/02/01 06:15:34;;;;;;;45.03;20.50;;;;;;;0.18;61.19;99310.41;5027114;28;20056;-73
2022/02/01 06:18:03;;;;;;;31.20;17.55;;;;;;;0.21;61.35;99309.41;5029362;28;20662;-73
2022/02/01 06:20:30;;;;;;;41.15;19.70;;;;;;;0.25;61.13;99317.91;5026184;28;20045;-69
2022/02/01 06:22:57;;;;;;;38.83;18.08;;;;;;;0.27;61.11;99303.09;5025882;28;20474;-74
2022/02/01 06:25:47;;;;;;;40.33;19.58;;;;;;;0.30;61.07;99298.59;5025634;28;20490;-70
2022/02/01 06:28:14;;;;;;;44.53;20.70;;;;;;;0.33;61.02;99303.66;5024451;28;20049;-75
2022/02/01 06:30:41;;;;;;;45.08;20.75;;;;;;;0.36;61.15;99302.66;5024649;28;20136;-72
2022/02/01 06:33:12;;;;;;;45.42;18.70;;;;;;;0.42;60.81;99304.19;5024828;28;20046;-71
2022/02/01 06:35:40;;;;;;;58.45;27.17;;;;;;;0.44;60.74;99307.53;5026158;28;20049;-72
2022/02/01 06:38:07;;;;;;;46.97;21.92;;;;;;;0.48;60.71;99319.47;5023096;28;20060;-71
2022/02/01 06:40:34;;;;;;;37.05;19.90;;;;;;;0.45;60.88;99314.41;5031364;28;20618;-72
2022/02/01 06:43:02;;;;;;;35.50;16.83;;;;;;;0.45;60.98;99311.81;5026385;28;20052;-71
2022/02/01 06:45:29;;;;;;;36.67;19.85;;;;;;;0.41;60.92;99313.69;5025040;28;20051;-71
2022/02/01 06:47:57;;;;;;;32.60;17.98;;;;;;;0.40;60.66;99317.22;5026714;28;20606;-71
2022/02/01 06:50:25;;;;;;;32.25;15.13;;;;;;;0.39;60.73;99325.91;5026702;28;20486;-71
2022/02/01 06:52:56;;;;;;;30.50;15.20;;;;;;;0.39;60.85;99318.13;5024336;28;20049;-73
2022/02/01 06:55:33;;;;;;;32.65;14.50;;;;;;;0.39;60.92;99331.13;5023116;28;20052;-71
2022/02/01 06:58:00;;;;;;;38.40;15.82;;;;;;;0.38;60.82;99332.03;5022205;28;20052;-73
2022/02/01 07:00:29;;;;;;;43.70;16.15;;;;;;;0.37;60.87;99345.94;5022617;28;20060;-71
2022/02/01 07:02:56;;;;;;;37.45;16.02;;;;;;;0.36;60.63;99345.09;5023669;28;20433;-71
2022/02/01 07:05:23;;;;;;;44.95;17.08;;;;;;;0.35;61.00;99346.00;5023522;28;20045;-72
2022/02/01 07:07:52;;;;;;;45.22;21.40;;;;;;;0.37;61.04;99348.53;5032488;28;20386;-70
2022/02/01 07:10:19;;;;;;;52.60;22.15;;;;;;;0.38;60.88;99352.81;5044232;28;20087;-71
2022/02/01 07:12:47;;;;;;;43.35;18.08;;;;;;;0.37;61.09;99357.16;5046878;28;20080;-74
2022/02/01 07:15:14;;;;;;;31.55;15.75;;;;;;;0.42;61.00;99343.97;5046548;28;20147;-74
2022/02/01 07:17:45;;;;;;;36.92;18.42;;;;;;;0.44;60.49;99356.91;5045485;28;20132;-70
2022/02/01 07:20:12;;;;;;;35.60;18.23;;;;;;;0.48;60.97;99358.44;5046619;28;20507;-69
2022/02/01 07:22:44;;;;;;;40.28;19.27;;;;;;;0.49;60.71;99347.97;5048748;28;20045;-73
2022/02/01 07:25:17;;;;;;;34.85;17.38;;;;;;;0.50;60.75;99352.25;5044178;28;20124;-72
2022/02/01 07:27:47;;;;;;;33.33;14.27;;;;;;;0.51;60.57;99353.94;5046449;28;20041;-73
2022/02/01 07:30:16;;;;;;;28.92;16.90;;;;;;;0.52;60.95;99355.66;5047563;28;20053;-72
2022/02/01 07:32:43;;;;;;;33.47;15.85;;;;;;;0.56;60.66;99356.34;5045267;28;20676;-71
2022/02/01 07:35:11;;;;;;;43.03;18.60;;;;;;;0.62;60.53;99348.25;5046852;28;20077;-73
2022/02/01 07:37:39;;;;;;;33.30;18.08;;;;;;;0.71;60.68;99347.00;5044011;28;20052;-71
2022/02/01 07:40:08;;;;;;;32.92;17.30;;;;;;;0.82;60.51;99336.94;5045291;28;20521;-74
2022/02/01 07:42:36;;;;;;;31.40;15.93;;;;;;;0.98;60.27;99331.00;5044479;28;20076;-73
2022/02/01 07:45:05;;;;;;;39.00;18.23;;;;;;;1.10;60.24;99325.22;5046736;28;20259;-72
2022/02/01 07:47:32;;;;;;;34.35;17.30;;;;;;;1.21;59.99;99327.31;5046458;28;20067;-74
2022/02/01 07:50:00;;;;;;;31.23;16.48;;;;;;;1.24;60.09;99330.59;5045664;28;20133;-75
2022/02/01 07:52:28;;;;;;;43.25;20.67;;;;;;;1.34;59.92;99318.81;5044122;28;20080;-73
2022/02/01 07:54:55;;;;;;;43.20;21.30;;;;;;;1.42;59.91;99325.38;5043413;28;20192;-73
2022/02/01 07:57:22;;;;;;;31.77;17.33;;;;;;;1.50;59.91;99325.88;5045616;28;20127;-73
2022/02/01 07:59:50;;;;;;;40.97;16.40;;;;;;;1.59;59.68;99322.78;5045315;28;20132;-72
2022/02/01 08:02:20;;;;;;;37.40;16.33;;;;;;;1.71;59.60;99316.09;5043307;28;20095;-75
2022/02/01 08:04:48;;;;;;;36.72;18.38;;;;;;;1.89;59.32;99325.59;5044420;28;20041;-71
2022/02/01 08:07:15;;;;;;;45.58;21.02;;;;;;;2.01;59.21;99318.06;5041963;28;20497;-69
2022/02/01 08:09:45;;;;;;;36.55;19.10;;;;;;;2.10;58.92;99323.63;5042179;28;20128;-72
2022/02/01 08:12:31;;;;;;;35.72;18.23;;;;;;;2.11;59.06;99314.06;5043190;28;20049;-73
2022/02/01 08:17:58;;;;;;;44.55;23.38;;;;;;;2.21;58.76;99325.66;5044772;28;20080;-73
2022/02/01 08:20:30;;;;;;;51.10;23.42;;;;;;;2.38;58.77;99331.75;5044749;28;20464;-72
2022/02/01 08:23:02;;;;;;;36.10;16.55;;;;;;;2.70;58.30;99331.75;5045980;28;20048;-72
2022/02/01 08:25:31;;;;;;;45.20;25.60;;;;;;;3.00;57.43;99334.44;5047328;28;20044;-72
2022/02/01 08:28:00;;;;;;;31.60;15.32;;;;;;;3.15;57.33;99335.34;5046162;28;20617;-75
2022/02/01 08:30:30;;;;;;;32.35;17.90;;;;;;;3.28;57.02;99331.13;5045150;28;20120;-71
2022/02/01 08:32:57;;;;;;;30.20;14.80;;;;;;;3.45;56.58;99330.16;5044258;28;20059;-72
2022/02/01 08:35:25;;;;;;;26.15;14.95;;;;;;;3.55;55.87;99320.84;5043842;28;20295;-73
2022/02/01 08:37:52;;;;;;;32.67;14.50;;;;;;;3.70;55.51;99315.66;5051050;28;20136;-73
2022/02/01 08:40:20;;;;;;;29.20;14.25;;;;;;;3.81;55.56;99318.47;5055165;28;20267;-74
2022/02/01 08:42:48;;;;;;;33.90;16.15;;;;;;;3.89;55.08;99323.22;5041826;28;20409;-76
2022/02/01 08:45:22;;;;;;;30.70;12.18;;;;;;;3.94;55.19;99319.44;5043413;28;20045;-72
2022/02/01 08:47:52;;;;;;;27.42;11.05;;;;;;;4.02;55.28;99326.81;5041779;28;20760;-73
2022/02/01 08:50:23;;;;;;;32.85;13.57;;;;;;;4.17;54.85;99325.84;5041159;28;20092;-75
2022/02/01 08:52:51;;;;;;;33.30;16.25;;;;;;;4.19;54.34;99325.78;5041957;28;20106;-72
2022/02/01 08:55:33;;;;;;;30.58;15.95;;;;;;;4.13;54.21;99316.53;5040992;28;20044;-74
2022/02/01 08:58:01;;;;;;;31.27;13.82;;;;;;;3.97;54.22;99316.63;5041758;28;20170;-73
2022/02/01 09:00:28;;;;;;;26.48;13.88;;;;;;;3.92;54.46;99323.88;5041910;28;20061;-73
2022/02/01 09:03:01;;;;;;;42.92;25.70;;;;;;;3.99;54.83;99322.59;5041944;28;20041;-74
2022/02/01 09:05:28;;;;;;;38.35;19.05;;;;;;;4.14;53.87;99319.97;5042958;28;20040;-73
2022/02/01 09:07:55;;;;;;;31.50;14.40;;;;;;;4.29;53.58;99315.59;5040749;28;20465;-70
2022/02/01 09:10:22;;;;;;;26.05;10.32;;;;;;;4.22;53.31;99315.97;5042066;28;20076;-74
2022/02/01 09:12:49;;;;;;;22.67;11.75;;;;;;;4.19;53.51;99308.31;5044199;28;20082;-72
2022/02/01 09:15:16;;;;;;;28.65;13.98;;;;;;;3.97;52.83;99316.63;5050228;28;20069;-71
2022/02/01 09:17:44;;;;;;;27.67;13.60;;;;;;;3.83;53.46;99309.63;5053476;28;20088;-72
2022/02/01 09:20:12;;;;;;;29.70;11.15;;;;;;;3.76;53.66;99312.69;5054976;28;20108;-72
2022/02/01 09:22:40;;;;;;;19.70;9.75;;;;;;;3.92;53.44;99310.81;5048418;28;20107;-75
2022/02/01 09:25:09;;;;;;;15.48;7.40;;;;;;;4.01;53.50;99307.66;5044625;28;20052;-71
2022/02/01 09:27:36;;;;;;;17.73;7.78;;;;;;;4.12;53.50;99309.63;5041259;28;20095;-71
2022/02/01 09:30:04;;;;;;;15.77;8.23;;;;;;;4.16;52.74;99294.59;5043926;28;20510;-75
2022/02/01 09:32:31;;;;;;;16.02;7.57;;;;;;;4.31;52.84;99298.88;5040873;28;20051;-72
2022/02/01 09:34:58;;;;;;;18.17;9.85;;;;;;;4.50;52.71;99297.72;5044154;28;20247;-72
2022/02/01 09:37:27;;;;;;;21.52;9.10;;;;;;;4.62;52.38;99290.91;5044548;28;20132;-73
2022/02/01 09:39:54;;;;;;;20.25;13.10;;;;;;;4.76;51.70;99289.06;5040771;28;20552;-73
2022/02/01 09:42:24;;;;;;;18.67;8.65;;;;;;;4.99;51.53;99294.63;5044062;28;20088;-73
2022/02/01 09:44:52;;;;;;;16.63;8.75;;;;;;;5.26;50.94;99291.16;5043349;28;20123;-71
2022/02/01 09:47:30;;;;;;;15.10;7.35;;;;;;;5.30;50.05;99287.38;5046602;28;20060;-71
2022/02/01 09:49:57;;;;;;;21.48;8.75;;;;;;;5.53;50.02;99289.28;5051847;28;20104;-72
2022/02/01 09:52:24;;;;;;;23.02;10.05;;;;;;;5.24;48.45;99293.84;5045384;28;20416;-72
2022/02/01 09:54:54;;;;;;;17.92;9.75;;;;;;;4.91;48.77;99286.41;5044798;28;20656;-72
2022/02/01 09:57:22;;;;;;;20.25;9.05;;;;;;;4.97;49.53;99283.41;5050283;28;20045;-71
2022/02/01 09:59:54;;;;;;;16.17;8.57;;;;;;;5.02;49.81;99278.69;5053099;28;20091;-72
2022/02/01 10:02:22;;;;;;;21.33;9.70;;;;;;;4.97;49.94;99283.41;5051332;28;20049;-71
2022/02/01 10:04:51;;;;;;;18.48;9.93;;;;;;;4.73;49.82;99284.03;5053248;28;20045;-69
2022/02/01 10:07:20;;;;;;;19.05;10.13;;;;;;;4.72;50.27;99277.13;5052179;28;20045;-72
2022/02/01 10:09:53;;;;;;;22.63;12.60;;;;;;;4.57;49.93;99262.41;5052051;28;20049;-71
2022/02/01 10:12:20;;;;;;;20.40;7.38;;;;;;;4.51;50.37;99270.66;5051963;28;20060;-70
2022/02/01 10:14:59;;;;;;;19.40;9.98;;;;;;;4.45;50.47;99265.78;5040867;28;20105;-70
2022/02/01 10:17:28;;;;;;;17.75;9.75;;;;;;;4.58;50.49;99270.16;5040461;28;20134;-71
2022/02/01 10:19:55;;;;;;;24.75;9.57;;;;;;;4.68;50.62;99265.19;5043384;28;20067;-72
2022/02/01 10:22:31;;;;;;;25.98;12.65;;;;;;;4.75;50.80;99253.41;5045902;28;20144;-71
2022/02/01 10:25:02;;;;;;;22.70;10.95;;;;;;;4.83;50.80;99250.28;5044767;28;20083;-71
2022/02/01 10:27:31;;;;;;;30.13;13.68;;;;;;;4.92;50.71;99254.09;5046968;28;20099;-71
2022/02/01 10:30:04;;;;;;;28.40;14.18;;;;;;;5.05;50.73;99236.63;5043947;28;20041;-72
2022/02/01 10:32:44;;;;;;;21.40;11.23;;;;;;;5.16;50.61;99236.75;5041682;28;20106;-70
2022/02/01 10:35:23;;;;;;;27.63;14.82;;;;;;;5.22;50.54;99226.81;5044926;28;20128;-71
2022/02/01 10:37:59;;;;;;;38.38;15.10;;;;;;;5.23;50.86;99211.00;5048096;28;20389;-72
2022/02/01 10:40:38;;;;;;;42.33;19.52;;;;;;;5.23;50.74;99208.41;5051525;28;20139;-72
2022/02/01 10:43:17;;;;;;;38.50;17.88;;;;;;;5.22;50.88;99219.81;5048947;28;20087;-72
2022/02/01 10:45:46;;;;;;;30.55;17.60;;;;;;;5.28;50.79;99215.94;5048741;28;20084;-71
2022/02/01 10:48:15;;;;;;;37.35;18.55;;;;;;;5.24;50.87;99206.59;5047523;28;20136;-72
2022/02/01 10:50:43;;;;;;;42.92;23.08;;;;;;;5.27;50.83;99209.03;5046128;28;20674;-73
2022/02/01 10:53:20;;;;;;;24.73;14.20;;;;;;;5.26;50.93;99209.97;5046466;28;20081;-72
2022/02/01 10:55:51;;;;;;;26.63;14.77;;;;;;;5.26;51.06;99212.59;5046994;28;20136;-71
2022/02/01 10:58:19;;;;;;;27.65;14.65;;;;;;;5.22;51.15;99208.50;5042953;28;20068;-71
2022/02/01 11:00:47;;;;;;;26.08;14.20;;;;;;;5.19;51.22;99193.84;5043885;28;20080;-73
2022/02/01 11:03:16;;;;;;;34.58;16.85;;;;;;;5.20;51.24;99186.81;5046006;28;20104;-72
2022/02/01 11:05:48;;;;;;;32.95;16.85;;;;;;;5.33;51.05;99188.50;5046385;28;20055;-72
2022/02/01 11:08:17;;;;;;;30.02;13.48;;;;;;;5.64;50.92;99181.16;5047105;28;20143;-74
2022/02/01 11:10:45;;;;;;;20.45;11.93;;;;;;;5.83;50.64;99180.72;5053897;28;20081;-73
2022/02/01 11:13:15;;;;;;;26.17;11.88;;;;;;;5.83;50.12;99185.13;5059932;28;20565;-71
2022/02/01 11:15:56;;;;;;;26.90;14.38;;;;;;;5.55;50.79;99177.41;5061111;28;20179;-71
2022/02/01 11:18:26;;;;;;;23.98;14.15;;;;;;;5.39;50.95;99175.94;5064923;28;20065;-72
2022/02/01 11:20:54;;;;;;;25.80;12.43;;;;;;;5.34;51.09;99165.78;5044595;28;20041;-72
2022/02/01 11:23:22;;;;;;;25.25;12.85;;;;;;;5.19;51.08;99170.28;5062750;28;20096;-71
2022/02/01 11:25:55;;;;;;;20.13;10.18;;;;;;;5.11;51.39;99162.09;5062750;28;20124;-73
2022/02/01 11:28:45;;;;;;;24.70;13.02;;;;;;;5.09;51.54;99164.81;5066210;28;20044;-70
2022/02/01 11:31:12;;;;;;;23.02;13.65;;;;;;;5.13;51.45;99150.59;5065533;28;20072;-73
2022/02/01 11:33:41;;;;;;;31.10;13.25;;;;;;;5.14;51.41;99139.16;5064969;28;20068;-71
2022/02/01 11:36:10;;;;;;;25.30;12.18;;;;;;;5.10;50.98;99142.94;5062583;28;20084;-70
2022/02/01 11:38:48;;;;;;;27.35;13.25;;;;;;;5.14;51.04;99136.56;5064236;28;20167;-71
2022/02/01 11:41:16;;;;;;;22.98;11.15;;;;;;;5.20;50.93;99134.47;5064078;28;20109;-74
2022/02/01 11:43:46;;;;;;;25.92;12.50;;;;;;;5.11;50.39;99131.56;5063003;28;20099;-71
2022/02/01 11:46:20;;;;;;;27.92;12.65;;;;;;;5.17;50.45;99127.66;5062700;28;20105;-73
2022/02/01 11:48:52;;;;;;;23.77;11.98;;;;;;;5.17;50.55;99125.88;5067336;28;20055;-73
2022/02/01 11:51:26;;;;;;;29.38;14.50;;;;;;;5.15;50.51;99125.16;5066328;28;20037;-72
2022/02/01 11:53:58;;;;;;;21.70;10.93;;;;;;;5.07;50.74;99122.22;5062185;28;20048;-71
2022/02/01 11:56:32;;;;;;;18.63;9.43;;;;;;;4.91;51.05;99127.63;5060682;28;20055;-71
2022/02/01 11:59:03;;;;;;;17.55;8.60;;;;;;;4.77;51.34;99117.25;5064004;28;20446;-72
2022/02/01 12:01:34;;;;;;;26.20;13.52;;;;;;;4.67;51.64;99114.44;5059418;28;20075;-71
2022/02/01 12:04:04;;;;;;;23.15;12.55;;;;;;;4.59;51.95;99116.69;5060797;28;20077;-72
2022/02/01 12:06:45;;;;;;;27.40;12.27;;;;;;;4.42;52.86;99109.97;5060360;28;20187;-71
2022/02/01 12:09:19;;;;;;;21.85;11.02;;;;;;;4.33;52.95;99103.56;5059056;28;20107;-70
2022/02/01 12:11:47;;;;;;;25.47;13.13;;;;;;;4.26;53.50;99098.84;5060529;28;20048;-72
2022/02/01 12:14:15;;;;;;;26.52;13.68;;;;;;;4.22;53.69;99092.97;5057816;28;20076;-71
2022/02/01 12:16:47;;;;;;;25.98;11.73;;;;;;;4.21;53.70;99078.22;5059021;28;20045;-72
2022/02/01 12:19:20;;;;;;;34.53;13.35;;;;;;;4.18;53.56;99081.88;5058712;28;20045;-69
2022/02/01 12:21:57;;;;;;;31.95;15.35;;;;;;;4.20;53.76;99087.00;5057924;28;20272;-71
2022/02/01 12:24:26;;;;;;;30.00;14.50;;;;;;;4.24;53.91;99088.47;5055721;28;20049;-72
2022/02/01 12:26:53;;;;;;;24.85;14.60;;;;;;;4.27;54.00;99093.53;5055834;28;20084;-72